Time;durP1;ratioP1;P1;durP2;ratioP2;P2;SDS_P1;SDS_P2;PMS_P1;PMS_P2;Temp;Humidity;BMP_temperature;BMP_pressure;BME280_temperature;BME280_humidity;BME280_pressure;Samples;Min_cycle;Max_cycle;Signal;HPM_P1;HPM_P2
2021/09/23 00:00:51;;;;;;;35.90;32.50;;;8.20;99.90;;;;;;4991437;28;20451;-70
2021/09/23 00:03:32;;;;;;;36.17;32.70;;;8.10;99.90;;;;;;4989442;28;20455;-71
2021/09/23 00:06:01;;;;;;;35.87;32.37;;;8.20;99.90;;;;;;4982434;28;20555;-71
2021/09/23 00:08:29;;;;;;;37.10;32.10;;;8.10;99.90;;;;;;4984086;28;20539;-71
2021/09/23 00:10:56;;;;;;;35.93;32.13;;;8.00;99.90;;;;;;4992207;28;20486;-71
2021/09/23 00:13:25;;;;;;;43.50;32.63;;;7.90;99.90;;;;;;4996911;28;20474;-72
2021/09/23 00:15:53;;;;;;;37.70;33.17;;;7.90;99.90;;;;;;4982675;28;20457;-71
2021/09/23 00:18:22;;;;;;;42.07;33.10;;;7.90;99.90;;;;;;4981525;28;20583;-72
2021/09/23 00:20:51;;;;;;;42.37;35.03;;;8.20;99.90;;;;;;4983054;28;20816;-70
2021/09/23 00:23:19;;;;;;;44.73;33.57;;;8.60;99.90;;;;;;4989090;28;20515;-71
2021/09/23 00:25:46;;;;;;;43.10;35.03;;;8.90;99.90;;;;;;4987294;28;20466;-71
2021/09/23 00:28:13;;;;;;;44.40;34.13;;;9.00;99.90;;;;;;4986083;28;20491;-70
2021/09/23 00:30:42;;;;;;;38.37;32.37;;;9.20;99.90;;;;;;4984818;28;20454;-71
2021/09/23 00:33:10;;;;;;;36.10;31.80;;;9.20;99.90;;;;;;4977547;28;20462;-72
2021/09/23 00:35:37;;;;;;;34.37;31.03;;;9.10;99.90;;;;;;4987375;28;20477;-71
2021/09/23 00:38:05;;;;;;;34.47;31.00;;;8.90;99.90;;;;;;4982130;28;20457;-70
2021/09/23 00:40:32;;;;;;;34.63;30.87;;;8.70;99.90;;;;;;4980240;28;20490;-72
2021/09/23 00:43:00;;;;;;;37.50;33.20;;;8.70;99.90;;;;;;4980992;28;20462;-70
2021/09/23 00:45:27;;;;;;;37.13;31.80;;;8.70;99.90;;;;;;4979198;28;20466;-70
2021/09/23 00:47:58;;;;;;;37.37;33.63;;;8.70;99.90;;;;;;4986716;28;21023;-70
2021/09/23 00:50:28;;;;;;;43.43;34.47;;;8.70;99.90;;;;;;4993171;28;21020;-69
2021/09/23 00:52:55;;;;;;;44.53;34.47;;;8.70;99.90;;;;;;4983312;28;20834;-70
2021/09/23 00:55:23;;;;;;;37.80;33.67;;;8.80;99.90;;;;;;4981672;28;20458;-70
2021/09/23 00:57:50;;;;;;;39.27;34.37;;;8.70;99.90;;;;;;4986703;28;20474;-71
2021/09/23 01:00:18;;;;;;;40.03;33.53;;;8.70;99.90;;;;;;4990182;28;20466;-70
2021/09/23 01:02:45;;;;;;;35.33;31.80;;;8.60;99.90;;;;;;4978886;28;20532;-70
2021/09/23 01:05:15;;;;;;;37.90;33.97;;;8.50;99.90;;;;;;4977666;28;20518;-70
2021/09/23 01:07:47;;;;;;;44.93;34.80;;;8.50;99.90;;;;;;4978329;28;20493;-70
2021/09/23 01:10:15;;;;;;;39.47;35.37;;;8.60;99.90;;;;;;4982459;28;20542;-70
2021/09/23 01:12:44;;;;;;;36.93;33.00;;;8.70;99.90;;;;;;4981828;28;20489;-70
2021/09/23 01:15:13;;;;;;;36.73;33.00;;;8.80;99.90;;;;;;4990827;28;20471;-70
2021/09/23 01:17:41;;;;;;;41.97;34.30;;;8.60;99.90;;;;;;4981634;28;20586;-70
2021/09/23 01:20:10;;;;;;;39.10;33.93;;;8.50;99.90;;;;;;4993111;28;20451;-70
2021/09/23 01:22:38;;;;;;;44.03;35.43;;;8.50;99.90;;;;;;4987284;28;20463;-70
2021/09/23 01:25:08;;;;;;;38.70;34.67;;;8.60;99.90;;;;;;4985908;28;20454;-70
2021/09/23 01:27:35;;;;;;;40.83;33.77;;;8.60;99.90;;;;;;4983553;28;20574;-70
2021/09/23 01:30:03;;;;;;;40.93;35.13;;;8.60;99.90;;;;;;4980335;28;20462;-71
2021/09/23 01:32:31;;;;;;;39.13;33.00;;;8.40;99.90;;;;;;4994666;28;20474;-69
2021/09/23 01:34:57;;;;;;;42.60;35.40;;;8.40;99.90;;;;;;4982133;28;20493;-70
2021/09/23 01:37:25;;;;;;;40.00;35.80;;;8.40;99.90;;;;;;4980818;28;20461;-70
2021/09/23 01:39:54;;;;;;;42.63;35.17;;;8.50;99.90;;;;;;4987622;28;20476;-70
2021/09/23 01:42:22;;;;;;;40.60;36.27;;;8.60;99.90;;;;;;4983077;28;20503;-70
2021/09/23 01:44:50;;;;;;;37.60;33.90;;;8.70;99.90;;;;;;4976091;28;20460;-70
2021/09/23 01:47:18;;;;;;;37.53;33.67;;;8.70;99.90;;;;;;4988051;28;20497;-70
2021/09/23 01:49:45;;;;;;;37.47;33.67;;;8.80;99.90;;;;;;4989962;28;20457;-70
2021/09/23 01:52:13;;;;;;;37.20;33.57;;;8.70;99.90;;;;;;4989482;28;20473;-70
2021/09/23 01:54:40;;;;;;;35.80;31.90;;;8.60;99.90;;;;;;4985355;28;20453;-70
2021/09/23 01:57:10;;;;;;;34.00;30.50;;;8.60;99.90;;;;;;4974836;28;20462;-70
2021/09/23 01:59:38;;;;;;;49.80;34.13;;;8.60;99.90;;;;;;4992766;28;20460;-69
2021/09/23 02:02:05;;;;;;;38.57;34.70;;;8.50;99.90;;;;;;4986244;28;20461;-69
2021/09/23 02:04:33;;;;;;;39.77;35.60;;;8.50;99.90;;;;;;4985854;28;20461;-70
2021/09/23 02:07:02;;;;;;;39.63;34.33;;;8.40;99.90;;;;;;4983894;28;20689;-70
2021/09/23 02:09:32;;;;;;;36.47;32.57;;;8.40;99.90;;;;;;4984035;28;20452;-70
2021/09/23 02:12:01;;;;;;;38.73;34.53;;;8.30;99.90;;;;;;4977724;28;20493;-71
2021/09/23 02:14:30;;;;;;;38.03;33.93;;;8.30;99.90;;;;;;4989271;28;20478;-69
2021/09/23 02:16:57;;;;;;;41.07;35.47;;;8.30;99.90;;;;;;4984979;28;20832;-71
2021/09/23 02:19:25;;;;;;;37.90;34.00;;;8.30;99.90;;;;;;4986454;28;20462;-71
2021/09/23 02:21:52;;;;;;;38.60;34.47;;;8.20;99.90;;;;;;4984116;28;20948;-70
2021/09/23 02:25:01;;;;;;;40.17;36.07;;;8.10;99.90;;;;;;4989392;28;20478;-69
2021/09/23 02:27:28;;;;;;;39.73;35.47;;;8.00;99.90;;;;;;4979832;28;20496;-71
2021/09/23 02:29:57;;;;;;;38.33;34.20;;;8.00;99.90;;;;;;4984318;28;20501;-69
2021/09/23 02:32:24;;;;;;;48.70;35.87;;;8.10;99.90;;;;;;4987650;28;20548;-71
2021/09/23 02:34:52;;;;;;;38.10;34.43;;;8.10;99.90;;;;;;4981450;28;20517;-70
2021/09/23 02:37:20;;;;;;;38.40;34.57;;;8.10;99.90;;;;;;4978151;28;20471;-71
2021/09/23 02:39:47;;;;;;;48.43;34.10;;;8.00;99.90;;;;;;4980362;28;20537;-70
2021/09/23 02:42:14;;;;;;;40.87;36.20;;;8.10;99.90;;;;;;4988382;28;20912;-71
2021/09/23 02:44:42;;;;;;;38.03;34.17;;;8.10;99.90;;;;;;4987313;28;20476;-70
2021/09/23 02:47:12;;;;;;;38.47;34.37;;;8.10;99.90;;;;;;4990792;28;20831;-69
2021/09/23 02:49:38;;;;;;;42.70;36.70;;;8.10;99.90;;;;;;4981767;28;20949;-69
2021/09/23 02:52:05;;;;;;;39.73;34.93;;;8.00;99.90;;;;;;4977737;28;20472;-70
2021/09/23 02:54:33;;;;;;;37.93;33.40;;;8.00;99.90;;;;;;4980495;28;20462;-71
2021/09/23 02:57:00;;;;;;;39.50;35.20;;;8.10;99.90;;;;;;4980801;28;20460;-69
2021/09/23 02:59:27;;;;;;;37.90;34.00;;;8.00;99.90;;;;;;4985810;28;20810;-70
2021/09/23 03:01:55;;;;;;;40.37;34.50;;;8.00;99.90;;;;;;4985339;28;20462;-70
2021/09/23 03:04:24;;;;;;;38.80;34.33;;;8.00;99.90;;;;;;4985505;28;20468;-69
2021/09/23 03:06:51;;;;;;;38.80;35.00;;;7.80;99.90;;;;;;4984173;28;20850;-69
2021/09/23 03:09:18;;;;;;;39.83;35.77;;;7.80;99.90;;;;;;4983444;28;20541;-69
2021/09/23 03:11:46;;;;;;;38.13;34.50;;;7.90;99.90;;;;;;4975648;28;20843;-69
2021/09/23 03:14:13;;;;;;;38.10;34.00;;;7.90;99.90;;;;;;4988448;28;20823;-70
2021/09/23 03:16:40;;;;;;;39.20;34.90;;;7.90;99.90;;;;;;4986372;28;20947;-69
2021/09/23 03:19:08;;;;;;;39.70;35.60;;;7.80;99.90;;;;;;4980245;28;20455;-69
2021/09/23 03:21:38;;;;;;;42.77;36.27;;;7.90;99.90;;;;;;4979048;28;20466;-71
2021/09/23 03:24:06;;;;;;;42.80;36.77;;;8.00;99.90;;;;;;4979880;28;20817;-69
2021/09/23 03:26:33;;;;;;;40.13;34.97;;;8.30;99.90;;;;;;4986812;28;20464;-69
2021/09/23 03:29:01;;;;;;;44.13;36.40;;;8.60;99.90;;;;;;4982737;28;20498;-69
2021/09/23 03:31:29;;;;;;;41.13;36.07;;;8.70;99.90;;;;;;4991159;28;20484;-69
2021/09/23 03:33:56;;;;;;;38.20;34.30;;;8.80;99.90;;;;;;4986995;28;20492;-69
2021/09/23 03:36:24;;;;;;;46.83;35.33;;;8.80;99.90;;;;;;4994823;28;20463;-70
2021/09/23 03:38:55;;;;;;;38.73;34.60;;;8.70;99.90;;;;;;4990673;28;20467;-69
2021/09/23 03:41:22;;;;;;;37.67;33.63;;;8.70;99.90;;;;;;4988150;28;20578;-69
2021/09/23 03:43:50;;;;;;;39.93;35.63;;;8.60;99.90;;;;;;4987253;28;20798;-69
2021/09/23 03:46:16;;;;;;;38.03;34.00;;;8.60;99.90;;;;;;4983797;28;20465;-70
2021/09/23 03:48:44;;;;;;;38.50;34.43;;;8.50;99.90;;;;;;4981358;28;20488;-69
2021/09/23 03:51:13;;;;;;;42.67;33.63;;;8.50;99.90;;;;;;4991349;28;20475;-69
2021/09/23 03:53:39;;;;;;;38.50;34.60;;;8.30;99.90;;;;;;4991869;28;20466;-69
2021/09/23 03:56:12;;;;;;;38.37;34.60;;;8.30;99.90;;;;;;4989947;28;20462;-70
2021/09/23 03:58:41;;;;;;;39.00;35.00;;;8.40;99.90;;;;;;4987964;28;20471;-69
2021/09/23 04:01:08;;;;;;;38.80;34.67;;;8.40;99.90;;;;;;4988296;28;20466;-69
2021/09/23 04:03:34;;;;;;;42.67;35.60;;;8.50;99.90;;;;;;4979251;28;20467;-69
2021/09/23 04:06:03;;;;;;;44.53;35.27;;;8.60;99.90;;;;;;4977449;28;20457;-69
2021/09/23 04:08:30;;;;;;;112.77;101.63;;;8.60;99.90;;;;;;4984674;28;20509;-69
2021/09/23 04:10:57;;;;;;;83.33;74.73;;;8.50;99.90;;;;;;4996395;28;20492;-70
2021/09/23 04:13:28;;;;;;;50.30;44.90;;;8.60;99.90;;;;;;4982002;28;20481;-69
2021/09/23 04:15:55;;;;;;;66.47;60.23;;;8.50;99.90;;;;;;4986505;28;20596;-69
2021/09/23 04:18:23;;;;;;;51.30;46.37;;;8.60;99.90;;;;;;4993045;28;20467;-69
2021/09/23 04:20:51;;;;;;;55.30;49.90;;;8.70;99.90;;;;;;4987642;28;20497;-69
2021/09/23 04:23:18;;;;;;;52.60;47.20;;;8.60;99.90;;;;;;4986266;28;20472;-68
2021/09/23 04:25:45;;;;;;;43.30;38.90;;;8.50;99.90;;;;;;4990041;28;20457;-68
2021/09/23 04:28:13;;;;;;;40.40;36.20;;;8.40;99.90;;;;;;4989723;28;20477;-69
2021/09/23 04:30:42;;;;;;;36.53;32.63;;;8.40;99.90;;;;;;4986660;28;20949;-69
2021/09/23 04:33:09;;;;;;;38.00;34.33;;;8.50;99.90;;;;;;4978333;28;20470;-69
2021/09/23 04:35:36;;;;;;;37.37;33.50;;;8.50;99.90;;;;;;4977366;28;20486;-69
2021/09/23 04:38:03;;;;;;;36.70;33.00;;;8.50;99.90;;;;;;4987544;28;20476;-68
2021/09/23 04:40:31;;;;;;;37.07;33.33;;;8.50;99.90;;;;;;4985350;28;20456;-69
2021/09/23 04:43:00;;;;;;;36.93;33.17;;;8.50;99.90;;;;;;4985168;28;20457;-69
2021/09/23 04:45:27;;;;;;;33.87;30.53;;;8.50;99.90;;;;;;4992927;28;20570;-68
2021/09/23 04:47:57;;;;;;;33.83;30.43;;;8.70;99.90;;;;;;4979575;28;20498;-68
2021/09/23 04:50:25;;;;;;;33.23;30.13;;;8.70;99.90;;;;;;4989358;28;20917;-68
2021/09/23 04:52:52;;;;;;;35.83;32.17;;;8.70;99.90;;;;;;4981859;28;20466;-69
2021/09/23 04:55:19;;;;;;;36.50;33.07;;;8.70;99.90;;;;;;4983475;28;20697;-68
2021/09/23 04:57:46;;;;;;;36.10;32.33;;;8.60;99.90;;;;;;4984347;28;20827;-68
2021/09/23 05:00:16;;;;;;;35.43;31.57;;;8.40;99.90;;;;;;4994366;28;20459;-68
2021/09/23 05:02:43;;;;;;;39.73;33.10;;;8.40;99.90;;;;;;4985905;28;20808;-68
2021/09/23 05:05:12;;;;;;;38.57;32.33;;;8.40;99.90;;;;;;4986714;28;20461;-69
2021/09/23 05:07:39;;;;;;;35.57;32.10;;;8.40;99.90;;;;;;4988246;28;20469;-69
2021/09/23 05:10:07;;;;;;;35.00;31.40;;;8.40;99.90;;;;;;4982388;28;20462;-68
2021/09/23 05:12:35;;;;;;;39.27;32.67;;;8.30;99.90;;;;;;4991443;28;20470;-68
2021/09/23 05:15:02;;;;;;;35.73;32.33;;;8.20;99.90;;;;;;4985552;28;20461;-68
2021/09/23 05:17:29;;;;;;;33.70;30.50;;;8.20;99.90;;;;;;4984996;28;20454;-68
2021/09/23 05:19:57;;;;;;;40.43;31.67;;;8.20;99.90;;;;;;4983761;28;20458;-68
2021/09/23 05:22:28;;;;;;;37.57;33.50;;;8.20;99.90;;;;;;4989109;28;20846;-68
2021/09/23 05:24:56;;;;;;;35.93;32.40;;;8.20;99.90;;;;;;4979515;28;20526;-68
2021/09/23 05:27:23;;;;;;;37.23;32.70;;;8.20;99.90;;;;;;4982972;28;20549;-68
2021/09/23 05:29:50;;;;;;;33.63;30.43;;;8.30;99.90;;;;;;4985206;28;20489;-68
2021/09/23 05:32:18;;;;;;;38.13;30.47;;;8.40;99.90;;;;;;4985934;28;20469;-68
2021/09/23 05:34:45;;;;;;;33.17;29.87;;;8.50;99.90;;;;;;4978466;28;20498;-68
2021/09/23 05:37:12;;;;;;;33.97;30.80;;;8.60;99.90;;;;;;4989584;28;20477;-68
2021/09/23 05:39:41;;;;;;;34.80;31.00;;;8.70;99.90;;;;;;4987192;28;20473;-67
2021/09/23 05:42:09;;;;;;;35.07;30.27;;;8.70;99.90;;;;;;4980663;28;20469;-68
2021/09/23 05:44:36;;;;;;;33.23;29.83;;;8.90;99.90;;;;;;4992170;28;20466;-68
2021/09/23 05:47:04;;;;;;;32.77;29.63;;;9.00;99.90;;;;;;4981568;28;20461;-67
2021/09/23 05:49:32;;;;;;;35.60;28.93;;;9.10;99.90;;;;;;4987008;28;20499;-67
2021/09/23 05:51:59;;;;;;;32.43;29.13;;;9.20;99.90;;;;;;4984020;28;20465;-69
2021/09/23 05:54:27;;;;;;;30.87;27.77;;;9.30;99.90;;;;;;4980201;28;20469;-68
2021/09/23 05:56:57;;;;;;;30.90;28.00;;;9.40;99.90;;;;;;4980377;28;20461;-67
2021/09/23 05:59:26;;;;;;;31.63;27.20;;;9.60;99.90;;;;;;4977991;28;20486;-67
2021/09/23 06:01:56;;;;;;;30.83;27.60;;;9.80;99.90;;;;;;4984935;28;20466;-67
2021/09/23 06:04:23;;;;;;;30.90;27.23;;;9.90;99.90;;;;;;4983747;28;20479;-69
2021/09/23 06:06:51;;;;;;;29.83;27.10;;;10.00;99.90;;;;;;4976854;28;20469;-68
2021/09/23 06:09:18;;;;;;;31.20;27.93;;;10.10;99.90;;;;;;4979167;28;20489;-67
2021/09/23 06:11:45;;;;;;;29.50;26.80;;;10.20;99.90;;;;;;4976312;28;20492;-68
2021/09/23 06:14:14;;;;;;;29.80;26.20;;;10.40;99.90;;;;;;4970864;28;20465;-67
2021/09/23 06:16:41;;;;;;;27.67;25.00;;;10.40;99.90;;;;;;4977535;28;20464;-67
2021/09/23 06:19:08;;;;;;;29.17;26.10;;;10.50;99.90;;;;;;4982288;28;20470;-67
2021/09/23 06:21:36;;;;;;;28.17;25.73;;;10.60;99.90;;;;;;4977845;28;20805;-68
2021/09/23 06:24:03;;;;;;;28.60;25.97;;;10.80;99.90;;;;;;4974971;28;20466;-67
2021/09/23 06:26:30;;;;;;;26.80;24.60;;;10.90;99.90;;;;;;4972207;28;20462;-67
2021/09/23 06:28:58;;;;;;;28.70;25.97;;;11.00;99.90;;;;;;4973948;28;20490;-68
2021/09/23 06:31:27;;;;;;;28.90;25.90;;;11.10;99.90;;;;;;4981047;28;20556;-69
2021/09/23 06:33:54;;;;;;;27.27;24.57;;;11.20;99.90;;;;;;4977000;28;20937;-68
2021/09/23 06:36:21;;;;;;;27.80;25.40;;;11.30;99.90;;;;;;4973590;28;20458;-67
2021/09/23 06:38:48;;;;;;;28.07;25.17;;;11.40;99.90;;;;;;4979547;28;20473;-68
2021/09/23 06:41:15;;;;;;;26.30;23.90;;;11.50;99.90;;;;;;4975482;28;20947;-67
2021/09/23 06:43:42;;;;;;;36.73;32.83;;;11.60;99.90;;;;;;4977114;28;20832;-68
2021/09/23 06:46:12;;;;;;;27.17;24.33;;;11.70;99.90;;;;;;4986662;28;20463;-68
2021/09/23 06:48:41;;;;;;;27.43;24.80;;;11.70;99.90;;;;;;4975132;28;20585;-68
2021/09/23 06:51:08;;;;;;;66.17;54.27;;;11.80;99.90;;;;;;4982251;28;20494;-67
2021/09/23 06:53:35;;;;;;;32.53;29.20;;;11.90;99.90;;;;;;4984130;28;20969;-67
2021/09/23 06:56:02;;;;;;;26.53;23.87;;;12.00;99.90;;;;;;4980143;28;20498;-68
2021/09/23 06:58:29;;;;;;;69.50;61.20;;;12.10;99.90;;;;;;4973985;28;20709;-67
2021/09/23 07:00:56;;;;;;;31.53;27.10;;;12.20;99.90;;;;;;4977054;28;20466;-68
2021/09/23 07:03:23;;;;;;;24.93;22.30;;;12.20;99.90;;;;;;4971424;28;20759;-67
2021/09/23 07:05:51;;;;;;;25.03;22.67;;;12.30;99.90;;;;;;4976410;28;20463;-68
2021/09/23 07:08:19;;;;;;;23.50;21.57;;;12.40;99.90;;;;;;4980444;28;20474;-68
2021/09/23 07:10:47;;;;;;;24.60;22.40;;;12.40;99.90;;;;;;4980047;28;20479;-68
2021/09/23 07:13:14;;;;;;;24.47;22.23;;;12.60;99.90;;;;;;4987056;28;20485;-67
2021/09/23 07:15:41;;;;;;;25.27;22.93;;;12.70;99.90;;;;;;4984619;28;20470;-68
2021/09/23 07:18:09;;;;;;;37.40;33.00;;;12.80;99.90;;;;;;4983767;28;20457;-68
2021/09/23 07:20:37;;;;;;;33.70;30.53;;;12.90;99.90;;;;;;4983384;28;20578;-68
2021/09/23 07:23:05;;;;;;;22.13;20.30;;;13.00;99.90;;;;;;4974930;28;20469;-67
2021/09/23 07:25:33;;;;;;;30.03;27.07;;;13.10;99.90;;;;;;4975687;28;20456;-68
2021/09/23 07:28:01;;;;;;;24.40;22.40;;;13.20;99.90;;;;;;4977182;28;20464;-69
2021/09/23 07:30:28;;;;;;;23.80;21.80;;;13.30;99.90;;;;;;4986668;28;20485;-68
2021/09/23 07:32:55;;;;;;;23.70;21.70;;;13.40;99.90;;;;;;4975173;28;20466;-67
2021/09/23 07:35:22;;;;;;;26.73;21.17;;;13.50;99.90;;;;;;4976192;28;20497;-69
2021/09/23 07:37:49;;;;;;;23.17;21.17;;;13.50;99.90;;;;;;4977637;28;20810;-70
2021/09/23 07:40:19;;;;;;;28.47;25.80;;;13.60;99.90;;;;;;4974889;28;20585;-68
2021/09/23 07:42:46;;;;;;;23.97;21.80;;;13.70;99.90;;;;;;4974620;28;20466;-68
2021/09/23 07:45:13;;;;;;;22.03;19.90;;;13.80;99.90;;;;;;4977865;28;20463;-68
2021/09/23 07:47:40;;;;;;;22.67;21.07;;;13.90;99.90;;;;;;4976245;28;20462;-68
2021/09/23 07:50:09;;;;;;;22.27;20.37;;;14.10;99.90;;;;;;4981078;28;20505;-69
2021/09/23 07:52:36;;;;;;;22.43;20.73;;;14.20;99.90;;;;;;4989052;28;20485;-68
2021/09/23 07:55:05;;;;;;;22.53;20.63;;;14.30;99.90;;;;;;4977625;28;20493;-68
2021/09/23 07:57:34;;;;;;;23.47;21.67;;;14.50;99.90;;;;;;4975417;28;20814;-68
2021/09/23 08:00:03;;;;;;;23.70;21.67;;;14.60;99.90;;;;;;4980912;28;20460;-68
2021/09/23 08:02:30;;;;;;;23.87;21.60;;;14.70;99.90;;;;;;4974042;28;20467;-70
2021/09/23 08:04:57;;;;;;;34.60;31.20;;;14.80;99.90;;;;;;4974244;28;20473;-68
2021/09/23 08:07:24;;;;;;;24.87;22.63;;;14.90;99.90;;;;;;4976763;28;20470;-67
2021/09/23 08:09:51;;;;;;;22.73;21.13;;;15.10;99.90;;;;;;4981341;28;20493;-68
2021/09/23 08:12:19;;;;;;;23.17;21.00;;;15.20;99.90;;;;;;4982379;28;20489;-68
2021/09/23 08:14:47;;;;;;;23.67;21.87;;;15.30;99.90;;;;;;4973972;28;20500;-68
2021/09/23 08:17:14;;;;;;;21.93;20.43;;;15.50;99.90;;;;;;4974475;28;20526;-69
2021/09/23 08:19:41;;;;;;;22.87;20.90;;;15.60;99.90;;;;;;4976511;28;20469;-69
2021/09/23 08:22:09;;;;;;;24.47;22.37;;;15.70;99.90;;;;;;4978219;28;20460;-67
2021/09/23 08:24:36;;;;;;;23.73;21.57;;;15.80;99.90;;;;;;4974522;28;20466;-67
2021/09/23 08:27:03;;;;;;;22.50;20.70;;;15.90;99.90;;;;;;4974530;28;20489;-66
2021/09/23 08:29:31;;;;;;;23.77;22.00;;;16.00;99.90;;;;;;4971845;28;20495;-67
2021/09/23 08:32:00;;;;;;;22.63;20.63;;;16.10;99.90;;;;;;4986132;28;20533;-70
2021/09/23 08:34:27;;;;;;;22.10;20.50;;;16.10;99.90;;;;;;4972570;28;20491;-68
2021/09/23 08:36:54;;;;;;;24.63;22.57;;;16.20;99.90;;;;;;4978540;28;20855;-67
2021/09/23 08:39:21;;;;;;;22.53;20.60;;;16.30;99.90;;;;;;4956834;28;20993;-69
2021/09/23 08:41:49;;;;;;;22.37;20.77;;;16.40;99.90;;;;;;4975501;28;20460;-68
2021/09/23 08:44:17;;;;;;;22.27;20.23;;;16.40;99.90;;;;;;4974105;28;20459;-67
2021/09/23 08:46:44;;;;;;;22.67;20.77;;;16.50;99.90;;;;;;4972874;28;20471;-67
2021/09/23 08:49:12;;;;;;;21.20;19.70;;;16.60;99.90;;;;;;4977749;28;20530;-68
2021/09/23 08:51:39;;;;;;;21.50;20.00;;;16.70;99.90;;;;;;4973885;28;20472;-67
2021/09/23 08:54:07;;;;;;;23.07;21.00;;;16.70;99.90;;;;;;4974745;28;20761;-68
2021/09/23 08:56:34;;;;;;;22.10;20.40;;;16.80;99.90;;;;;;4973851;28;20463;-68
2021/09/23 08:59:01;;;;;;;22.53;20.17;;;16.80;99.90;;;;;;4977479;28;20466;-68
2021/09/23 09:01:39;;;;;;;21.70;20.10;;;16.90;99.90;;;;;;4971814;28;21492;-68
2021/09/23 09:04:07;;;;;;;21.67;19.97;;;17.00;99.90;;;;;;4977191;28;20868;-70
2021/09/23 09:06:36;;;;;;;22.17;20.23;;;17.10;99.90;;;;;;4974495;28;20518;-69
2021/09/23 09:09:04;;;;;;;21.60;19.80;;;17.20;99.90;;;;;;4984399;28;20573;-68
2021/09/23 09:11:32;;;;;;;21.30;19.70;;;17.20;99.90;;;;;;4972760;28;20962;-68
2021/09/23 09:13:59;;;;;;;21.00;19.50;;;17.20;99.90;;;;;;4979963;28;20960;-68
2021/09/23 09:16:30;;;;;;;20.30;18.90;;;17.40;99.90;;;;;;4978747;28;20609;-68
2021/09/23 09:18:58;;;;;;;22.57;18.53;;;17.40;99.90;;;;;;4983479;28;20861;-68
2021/09/23 09:21:27;;;;;;;20.70;19.13;;;17.50;99.90;;;;;;4986126;28;20453;-68
2021/09/23 09:23:57;;;;;;;21.50;19.30;;;17.60;99.90;;;;;;4978458;28;20470;-68
2021/09/23 09:26:31;;;;;;;20.33;18.93;;;17.60;99.90;;;;;;4977772;28;20455;-69
2021/09/23 09:29:02;;;;;;;22.27;20.57;;;17.90;99.90;;;;;;4972254;28;22384;-69
2021/09/23 09:31:30;;;;;;;22.00;19.77;;;18.10;99.90;;;;;;4971584;28;20466;-69
2021/09/23 09:34:00;;;;;;;22.27;20.10;;;18.50;99.90;;;;;;4979808;28;21205;-68
2021/09/23 09:36:32;;;;;;;20.40;18.97;;;18.90;99.90;;;;;;4978618;28;20462;-70
2021/09/23 09:39:03;;;;;;;20.73;19.23;;;19.40;99.90;;;;;;4971934;28;20470;-69
2021/09/23 09:41:31;;;;;;;20.63;19.03;;;19.80;99.90;;;;;;4984312;28;20497;-70
2021/09/23 09:44:01;;;;;;;21.43;19.77;;;20.00;99.90;;;;;;4980342;28;20482;-69
2021/09/23 09:46:30;;;;;;;18.73;17.53;;;20.00;99.90;;;;;;4977166;28;20555;-69
2021/09/23 09:48:58;;;;;;;19.43;18.23;;;19.90;99.90;;;;;;4979940;28;20506;-70
2021/09/23 09:51:36;;;;;;;19.07;17.47;;;19.90;99.90;;;;;;4986664;28;20457;-69
2021/09/23 09:54:06;;;;;;;20.77;19.07;;;20.00;99.90;;;;;;4977473;28;20462;-71
2021/09/23 09:56:33;;;;;;;20.13;18.40;;;20.20;99.90;;;;;;4982980;28;20466;-69
2021/09/23 09:59:10;;;;;;;20.30;18.80;;;20.10;99.90;;;;;;4985609;28;20773;-68
2021/09/23 10:01:37;;;;;;;20.50;19.00;;;20.30;99.90;;;;;;4978816;28;20474;-68
2021/09/23 10:04:05;;;;;;;20.13;18.73;;;20.80;99.90;;;;;;4983136;28;20824;-69
2021/09/23 10:06:33;;;;;;;19.63;18.03;;;20.60;99.90;;;;;;4970915;28;20491;-68
2021/09/23 10:09:02;;;;;;;19.87;18.27;;;20.60;99.90;;;;;;4971831;28;20534;-69
2021/09/23 10:11:31;;;;;;;20.73;19.00;;;20.50;99.90;;;;;;4984264;28;20465;-68
2021/09/23 10:13:59;;;;;;;21.87;20.17;;;20.30;99.90;;;;;;4979486;28;20478;-68
2021/09/23 10:16:29;;;;;;;20.27;18.87;;;20.30;99.90;;;;;;4991540;28;20787;-71
2021/09/23 10:18:57;;;;;;;20.60;19.00;;;20.10;99.90;;;;;;4984023;28;21012;-68
2021/09/23 10:21:24;;;;;;;21.43;19.70;;;20.10;99.90;;;;;;4975268;28;20467;-67
2021/09/23 10:23:52;;;;;;;22.50;20.47;;;20.40;99.90;;;;;;4975056;28;20459;-69
2021/09/23 10:26:23;;;;;;;22.60;20.63;;;20.90;99.90;;;;;;4982091;28;20459;-68
2021/09/23 10:28:55;;;;;;;21.93;19.50;;;21.20;99.90;;;;;;4985052;28;20477;-68
2021/09/23 10:31:29;;;;;;;19.90;18.53;;;21.60;99.90;;;;;;4980075;28;20882;-68
2021/09/23 10:33:58;;;;;;;21.90;20.23;;;21.80;99.90;;;;;;4981574;28;20489;-69
2021/09/23 10:36:26;;;;;;;19.67;18.27;;;22.10;99.90;;;;;;4984618;28;20571;-68
2021/09/23 10:38:54;;;;;;;20.73;19.43;;;22.20;99.90;;;;;;4980157;28;20470;-69
2021/09/23 10:41:22;;;;;;;20.93;19.20;;;22.20;99.90;;;;;;4978241;28;20470;-70
2021/09/23 10:43:50;;;;;;;21.67;19.40;;;22.40;99.90;;;;;;4971755;28;20522;-68
2021/09/23 10:46:22;;;;;;;19.30;17.90;;;22.30;99.90;;;;;;4977090;28;20474;-69
2021/09/23 10:48:49;;;;;;;19.80;18.20;;;22.50;99.90;;;;;;4976398;28;20884;-69
2021/09/23 10:51:18;;;;;;;19.87;18.30;;;22.00;99.90;;;;;;4971885;28;20491;-69
2021/09/23 10:53:49;;;;;;;20.00;18.40;;;21.80;99.90;;;;;;4973441;28;20551;-68
2021/09/23 10:56:20;;;;;;;19.43;18.07;;;21.60;99.90;;;;;;4975209;28;20460;-69
2021/09/23 10:59:22;;;;;;;19.17;17.90;;;21.70;99.90;;;;;;4970867;28;20463;-69
2021/09/23 11:05:03;;;;;;;20.23;18.23;;;22.00;99.90;;;;;;5019264;27;20563;-70
2021/09/23 11:07:30;;;;;;;18.93;17.73;;;22.30;99.90;;;;;;5030258;28;20960;-71
2021/09/23 11:10:13;;;;;;;20.83;18.97;;;22.60;99.90;;;;;;5027738;28;20456;-69
2021/09/23 11:12:42;;;;;;;19.30;17.90;;;22.40;99.90;;;;;;5023258;28;20476;-69
2021/09/23 11:15:11;;;;;;;19.97;18.13;;;22.70;99.90;;;;;;5024085;28;20460;-70
2021/09/23 11:17:39;;;;;;;20.70;18.80;;;22.90;99.90;;;;;;5026520;27;20472;-69
2021/09/23 11:20:11;;;;;;;20.70;19.00;;;23.30;99.90;;;;;;5028873;27;20974;-70
2021/09/23 11:22:40;;;;;;;19.57;17.97;;;23.80;99.90;;;;;;5038159;27;20517;-70
2021/09/23 11:25:10;;;;;;;19.90;18.60;;;24.30;99.90;;;;;;5020658;27;20461;-71
2021/09/23 11:27:38;;;;;;;21.50;19.30;;;24.10;99.90;;;;;;5023393;28;20810;-70
2021/09/23 11:30:07;;;;;;;20.90;19.23;;;24.30;99.90;;;;;;5028451;28;20462;-70
2021/09/23 11:32:44;;;;;;;21.57;20.07;;;24.30;99.90;;;;;;5023512;27;20457;-70
2021/09/23 11:35:12;;;;;;;21.70;19.33;;;24.30;99.90;;;;;;5028700;28;20460;-71
2021/09/23 11:37:40;;;;;;;19.97;18.27;;;24.20;99.90;;;;;;5021572;28;20460;-70
2021/09/23 11:40:09;;;;;;;20.37;18.60;;;24.20;99.90;;;;;;5023484;28;20488;-70
2021/09/23 11:42:43;;;;;;;20.53;19.03;;;24.00;99.90;;;;;;5025629;28;20461;-70
2021/09/23 11:45:14;;;;;;;20.70;19.17;;;23.80;99.90;;;;;;5023482;28;20542;-70
2021/09/23 11:47:46;;;;;;;19.57;18.10;;;23.80;99.90;;;;;;5024725;28;20460;-70
2021/09/23 11:50:25;;;;;;;17.80;16.70;;;24.00;99.90;;;;;;5023537;27;20810;-71
2021/09/23 11:52:55;;;;;;;18.40;16.97;;;24.00;99.90;;;;;;5016774;28;20456;-70
2021/09/23 11:55:22;;;;;;;19.10;17.80;;;24.00;99.90;;;;;;5016229;28;20979;-70
2021/09/23 11:57:59;;;;;;;18.53;17.33;;;24.30;99.90;;;;;;5026125;28;20813;-71
2021/09/23 12:00:33;;;;;;;17.50;16.40;;;24.50;99.90;;;;;;5025772;27;20467;-70
2021/09/23 12:02:59;;;;;;;18.20;16.80;;;24.70;99.10;;;;;;5020688;28;20534;-70
2021/09/23 12:05:30;;;;;;;17.90;16.60;;;25.00;99.20;;;;;;5026616;27;20542;-71
2021/09/23 12:08:04;;;;;;;17.47;16.47;;;25.20;98.50;;;;;;5019282;28;21109;-71
2021/09/23 12:10:32;;;;;;;18.20;16.97;;;25.10;98.60;;;;;;5021027;28;20499;-69
2021/09/23 12:13:00;;;;;;;17.83;16.30;;;25.10;99.00;;;;;;5020518;28;20986;-71
2021/09/23 12:15:30;;;;;;;17.20;15.87;;;25.30;98.30;;;;;;5018728;28;20621;-70
2021/09/23 12:18:00;;;;;;;18.27;16.93;;;25.10;97.50;;;;;;5010436;28;20643;-71
2021/09/23 12:20:43;;;;;;;17.83;16.73;;;25.10;97.30;;;;;;5002016;28;20486;-70
2021/09/23 12:23:26;;;;;;;17.47;15.90;;;24.70;97.60;;;;;;5009306;27;20551;-71
2021/09/23 12:26:09;;;;;;;18.20;16.47;;;24.80;97.10;;;;;;5014350;28;20460;-70
2021/09/23 12:28:40;;;;;;;18.37;16.60;;;24.60;96.90;;;;;;5008908;28;20456;-72
2021/09/23 12:31:10;;;;;;;16.87;15.67;;;24.20;97.80;;;;;;5013354;28;20461;-70
2021/09/23 12:33:54;;;;;;;16.70;15.60;;;24.20;98.20;;;;;;5008099;28;20547;-71
2021/09/23 12:36:28;;;;;;;17.90;16.70;;;24.50;97.90;;;;;;5006262;28;20458;-71
2021/09/23 12:39:20;;;;;;;17.20;15.90;;;24.40;97.40;;;;;;5013039;28;20975;-71
2021/09/23 12:42:02;;;;;;;16.77;15.30;;;24.40;97.80;;;;;;5029644;28;20568;-72